createdAt,value
2023-03-04T00:00:17.131Z,100129.28
2023-03-04T00:01:04.269Z,100128.97
2023-03-04T00:01:51.563Z,100125.03
2023-03-04T00:02:38.803Z,100122.09
2023-03-04T00:03:25.917Z,100122.47
2023-03-04T00:04:13.216Z,100117.75
2023-03-04T00:05:00.383Z,100122.09
2023-03-04T00:05:47.693Z,100131.63
2023-03-04T00:06:34.764Z,100126.06
2023-03-04T00:07:21.875Z,100123.59
2023-03-04T00:08:08.967Z,100120.59
2023-03-04T00:08:56.134Z,100124.06
2023-03-04T00:09:45.301Z,100125.75
2023-03-04T00:10:32.324Z,100126.53
2023-03-04T00:11:19.404Z,100123.91
2023-03-04T00:12:08.805Z,100125.13
2023-03-04T00:12:55.750Z,100125.69
2023-03-04T00:13:42.956Z,100131.31
2023-03-04T00:14:30.561Z,100120.00
2023-03-04T00:15:17.768Z,100126.34
2023-03-04T00:16:05.089Z,100123.75
2023-03-04T00:16:52.171Z,100117.31
2023-03-04T00:17:39.168Z,100119.66
2023-03-04T00:18:26.241Z,100126.09
2023-03-04T00:19:13.400Z,100121.19
2023-03-04T00:20:00.545Z,100122.03
2023-03-04T00:20:47.902Z,100119.47
2023-03-04T00:21:34.926Z,100122.97
2023-03-04T00:22:22.242Z,100124.66
2023-03-04T00:23:09.276Z,100124.56
2023-03-04T00:23:56.911Z,100115.22
2023-03-04T00:24:44.017Z,100121.25
2023-03-04T00:25:31.038Z,100121.03
2023-03-04T00:26:19.554Z,100122.03
2023-03-04T00:27:06.568Z,100123.41
2023-03-04T00:27:53.640Z,100120.41
2023-03-04T00:28:40.959Z,100112.56
2023-03-04T00:29:28.074Z,100120.28
2023-03-04T00:30:15.198Z,100116.94
2023-03-04T00:31:02.264Z,100114.66
2023-03-04T00:31:49.431Z,100122.13
2023-03-04T00:32:36.591Z,100120.66
2023-03-04T00:33:23.684Z,100117.06
2023-03-04T00:34:10.765Z,100125.69
2023-03-04T00:34:57.765Z,100125.03
2023-03-04T00:35:45.128Z,100112.63
2023-03-04T00:36:32.367Z,100116.47
2023-03-04T00:37:19.489Z,100121.09
2023-03-04T00:38:06.722Z,100120.41
2023-03-04T00:38:53.785Z,100127.31
2023-03-04T00:39:40.895Z,100125.22
2023-03-04T00:40:27.985Z,100118.84
2023-03-04T00:41:15.043Z,100125.50
2023-03-04T00:42:02.093Z,100121.87
2023-03-04T00:42:49.078Z,100123.81
2023-03-04T00:43:36.083Z,100118.19
2023-03-04T00:44:23.050Z,100116.00
2023-03-04T00:45:10.683Z,100121.13
2023-03-04T00:45:57.840Z,100124.19
2023-03-04T00:46:44.928Z,100124.41
2023-03-04T00:47:32.054Z,100121.94
2023-03-04T00:48:19.252Z,100125.91
2023-03-04T00:49:06.342Z,100129.41
2023-03-04T00:49:53.365Z,100122.94
2023-03-04T00:50:40.544Z,100113.47
2023-03-04T00:51:27.524Z,100119.81
2023-03-04T00:52:14.614Z,100115.84
2023-03-04T00:53:02.343Z,100112.94
2023-03-04T00:53:49.396Z,100115.41
2023-03-04T00:54:36.410Z,100114.94
2023-03-04T00:55:23.449Z,100103.25
2023-03-04T00:56:10.463Z,100113.34
2023-03-04T00:56:57.389Z,100109.09
2023-03-04T00:57:44.466Z,100109.72
2023-03-04T00:58:31.406Z,100111.75
2023-03-04T00:59:18.496Z,100106.59
2023-03-04T01:00:06.161Z,100109.81
2023-03-04T01:00:53.919Z,100110.78
2023-03-04T01:01:41.008Z,100106.25
2023-03-04T01:02:28.009Z,100105.91
2023-03-04T01:03:15.073Z,100105.59
2023-03-04T01:04:02.051Z,100103.88
2023-03-04T01:04:49.137Z,100100.50
2023-03-04T01:05:36.255Z,100107.56
2023-03-04T01:06:23.344Z,100102.72
2023-03-04T01:07:10.447Z,100101.81
2023-03-04T01:07:57.649Z,100104.13
2023-03-04T01:08:44.655Z,100104.31
2023-03-04T01:09:31.926Z,100099.81
2023-03-04T01:10:19.615Z,100100.16
2023-03-04T01:11:07.258Z,100096.81
2023-03-04T01:11:54.357Z,100103.97
2023-03-04T01:12:41.961Z,100095.69
2023-03-04T01:13:29.119Z,100096.94
2023-03-04T01:14:16.256Z,100097.63
2023-03-04T01:15:04.510Z,100095.91
2023-03-04T01:15:51.681Z,100094.31
2023-03-04T01:16:38.813Z,100095.69
2023-03-04T01:17:26.034Z,100097.91
2023-03-04T01:18:13.176Z,100107.09
2023-03-04T01:19:00.407Z,100099.94
2023-03-04T01:19:47.417Z,100100.50
2023-03-04T01:20:34.521Z,100092.31
2023-03-04T01:21:21.600Z,100091.19
2023-03-04T01:22:08.715Z,100092.78
2023-03-04T01:22:55.921Z,100095.16
2023-03-04T01:23:42.973Z,100096.75
2023-03-04T01:24:30.903Z,100097.66
2023-03-04T01:25:18.131Z,100091.19
2023-03-04T01:26:05.358Z,100090.63
2023-03-04T01:26:52.323Z,100090.97
2023-03-04T01:27:39.311Z,100094.09
2023-03-04T01:28:26.318Z,100099.06
2023-03-04T01:29:13.249Z,100085.97
2023-03-04T01:30:00.390Z,100086.06
2023-03-04T01:30:47.384Z,100092.78
2023-03-04T01:31:34.378Z,100082.22
2023-03-04T01:32:21.433Z,100086.75
2023-03-04T01:33:08.556Z,100076.25
2023-03-04T01:33:56.291Z,100082.38
2023-03-04T01:34:43.441Z,100080.63
2023-03-04T01:35:30.444Z,100071.81
2023-03-04T01:36:17.491Z,100073.25
2023-03-04T01:37:04.540Z,100074.37
2023-03-04T01:37:51.696Z,100073.12
2023-03-04T01:38:38.719Z,100076.69
2023-03-04T01:39:25.873Z,100074.09
2023-03-04T01:40:13.916Z,100073.25
2023-03-04T01:41:01.167Z,100074.03
2023-03-04T01:41:48.219Z,100069.12
2023-03-04T01:42:36.367Z,100064.19
2023-03-04T01:43:26.514Z,100068.06
2023-03-04T01:44:13.708Z,100067.22
2023-03-04T01:45:00.811Z,100068.41
2023-03-04T01:45:49.924Z,100061.63
2023-03-04T01:46:37.883Z,100072.72
2023-03-04T01:47:29.303Z,100057.94
2023-03-04T01:48:19.311Z,100062.66
2023-03-04T01:49:06.998Z,100065.06
2023-03-04T01:49:56.257Z,100065.00
2023-03-04T01:50:43.321Z,100062.72
2023-03-04T01:51:30.372Z,100064.25
2023-03-04T01:52:17.457Z,100062.09
2023-03-04T01:53:04.687Z,100062.91
2023-03-04T01:53:53.732Z,100057.59
2023-03-04T01:54:41.493Z,100062.03
2023-03-04T01:55:29.470Z,100061.34
2023-03-04T01:56:36.694Z,100060.06
2023-03-04T01:57:25.980Z,100053.69
2023-03-04T01:58:13.463Z,100052.38
2023-03-04T01:59:14.098Z,100054.53
2023-03-04T02:00:31.515Z,100046.41
2023-03-04T02:01:18.546Z,100047.78
2023-03-04T02:02:05.562Z,100043.00
2023-03-04T02:03:11.619Z,100049.81
2023-03-04T02:03:58.667Z,100044.00
2023-03-04T02:04:45.695Z,100054.03
2023-03-04T02:05:32.779Z,100049.41
2023-03-04T02:06:19.658Z,100048.97
2023-03-04T02:07:06.842Z,100049.75
2023-03-04T02:07:54.542Z,100052.72
2023-03-04T02:08:41.491Z,100046.25
2023-03-04T02:09:29.656Z,100054.25
2023-03-04T02:10:16.896Z,100047.63
2023-03-04T02:11:03.935Z,100045.28
2023-03-04T02:11:52.029Z,100040.63
2023-03-04T02:12:39.558Z,100035.06
2023-03-04T02:13:28.544Z,100036.53
2023-03-04T02:14:16.000Z,100032.78
2023-03-04T02:15:03.069Z,100036.94
2023-03-04T02:15:50.033Z,100038.97
2023-03-04T02:16:36.960Z,100032.78
2023-03-04T02:17:27.137Z,100032.69
2023-03-04T02:18:22.323Z,100033.53
2023-03-04T02:19:19.762Z,100025.34
2023-03-04T02:20:15.444Z,100024.59
2023-03-04T02:21:17.440Z,100032.09
2023-03-04T02:22:04.458Z,100030.91
2023-03-04T02:23:28.163Z,100023.56
2023-03-04T02:24:36.050Z,100030.66
2023-03-04T02:25:27.815Z,100027.44
2023-03-04T02:26:23.325Z,100023.00
2023-03-04T02:27:10.241Z,100030.78
2023-03-04T02:27:58.364Z,100032.66
2023-03-04T02:28:45.992Z,100031.03
2023-03-04T02:29:33.096Z,100026.13
2023-03-04T02:30:21.372Z,100023.63
2023-03-04T02:31:29.138Z,100023.22
2023-03-04T02:32:16.938Z,100027.37
2023-03-04T02:33:04.051Z,100013.41
2023-03-04T02:33:52.727Z,100027.19
2023-03-04T02:34:46.297Z,100028.69
2023-03-04T02:35:33.425Z,100021.81
2023-03-04T02:36:20.838Z,100017.94
2023-03-04T02:37:10.435Z,100019.47
2023-03-04T02:37:57.534Z,100020.25
2023-03-04T02:38:44.705Z,100023.37
2023-03-04T02:39:38.355Z,100017.59
2023-03-04T02:40:29.172Z,100012.50
2023-03-04T02:41:19.799Z,100016.84
2023-03-04T02:42:07.115Z,100020.19
2023-03-04T02:42:54.084Z,100015.69
2023-03-04T02:43:41.412Z,100007.84
2023-03-04T02:44:35.042Z,100015.09
2023-03-04T02:45:51.733Z,100017.03
2023-03-04T02:46:38.790Z,100009.47
2023-03-04T02:47:25.806Z,100017.03
2023-03-04T02:48:13.546Z,100013.78
2023-03-04T02:49:00.512Z,100006.69
2023-03-04T02:49:48.066Z,100016.91
2023-03-04T02:50:38.730Z,100013.56
2023-03-04T02:51:25.499Z,100010.19
2023-03-04T02:52:21.233Z,100008.97
2023-03-04T02:53:08.248Z,100009.19
2023-03-04T02:53:55.153Z,100015.56
2023-03-04T02:54:42.248Z,100010.19
2023-03-04T02:55:29.858Z,100014.97
2023-03-04T02:56:16.806Z,100014.03
2023-03-04T02:57:06.573Z,100016.13
2023-03-04T02:57:53.647Z,100011.56
2023-03-04T02:58:41.466Z,100017.25
2023-03-04T02:59:28.747Z,100009.06
2023-03-04T03:00:16.536Z,100021.34
2023-03-04T03:01:03.550Z,100009.13
2023-03-04T03:01:51.095Z,100010.44
2023-03-04T03:02:38.112Z,100009.31
2023-03-04T03:03:25.554Z,100005.00
2023-03-04T03:04:13.361Z,100004.88
2023-03-04T03:05:00.468Z,99997.88
2023-03-04T03:05:47.667Z,100002.81
2023-03-04T03:06:34.879Z,100003.00
2023-03-04T03:07:22.079Z,100007.50
2023-03-04T03:08:09.320Z,99994.59
2023-03-04T03:08:56.325Z,100001.16
2023-03-04T03:09:43.384Z,99998.00
2023-03-04T03:10:30.454Z,100003.69
2023-03-04T03:11:17.482Z,100004.03
2023-03-04T03:12:04.541Z,100000.75
2023-03-04T03:12:51.625Z,100001.03
2023-03-04T03:13:38.595Z,100000.84
2023-03-04T03:14:25.633Z,99995.56
2023-03-04T03:15:12.757Z,100004.38
2023-03-04T03:15:59.802Z,100000.69
2023-03-04T03:16:46.833Z,99992.84
2023-03-04T03:17:34.436Z,99999.03
2023-03-04T03:18:21.428Z,100002.72
2023-03-04T03:19:08.466Z,99996.28
2023-03-04T03:19:55.522Z,99996.75
2023-03-04T03:20:42.616Z,99999.69
2023-03-04T03:21:29.713Z,100001.19
2023-03-04T03:22:16.761Z,99994.88
2023-03-04T03:23:04.151Z,99991.69
2023-03-04T03:23:51.153Z,100001.59
2023-03-04T03:24:38.164Z,99995.78
2023-03-04T03:25:25.245Z,99998.12
2023-03-04T03:26:12.566Z,99990.22
2023-03-04T03:26:59.654Z,99990.12
2023-03-04T03:27:46.693Z,99991.72
2023-03-04T03:28:33.764Z,99990.84
2023-03-04T03:29:20.697Z,99985.09
2023-03-04T03:30:09.334Z,99989.16
2023-03-04T03:30:56.243Z,99993.37
2023-03-04T03:31:43.250Z,99991.50
2023-03-04T03:32:30.443Z,99987.59
2023-03-04T03:33:17.619Z,99991.81
2023-03-04T03:34:04.690Z,99985.91
2023-03-04T03:34:51.684Z,99982.66
2023-03-04T03:35:38.682Z,99987.16
2023-03-04T03:36:25.779Z,99984.03
2023-03-04T03:37:12.939Z,99984.03
2023-03-04T03:37:59.891Z,99987.53
2023-03-04T03:38:46.963Z,99992.59
2023-03-04T03:39:34.022Z,99994.00
2023-03-04T03:40:21.039Z,99982.69
2023-03-04T03:41:08.043Z,99988.03
2023-03-04T03:41:55.043Z,99988.31
2023-03-04T03:42:42.078Z,99990.09
2023-03-04T03:43:29.189Z,99991.91
2023-03-04T03:44:16.317Z,99987.13
2023-03-04T03:45:03.494Z,99990.66
2023-03-04T03:45:52.245Z,99989.53
2023-03-04T03:46:39.252Z,99990.94
2023-03-04T03:47:26.280Z,99988.78
2023-03-04T03:48:13.263Z,99993.50
2023-03-04T03:49:00.244Z,99986.28
2023-03-04T03:49:47.259Z,99989.53
2023-03-04T03:50:34.318Z,99984.56
2023-03-04T03:51:21.332Z,99979.59
2023-03-04T03:52:09.362Z,99988.63
2023-03-04T03:52:56.381Z,99979.88
2023-03-04T03:53:43.421Z,99984.47
2023-03-04T03:54:30.516Z,99982.03
2023-03-04T03:55:17.553Z,99984.31
2023-03-04T03:56:04.970Z,99979.47
2023-03-04T03:56:51.925Z,99991.91
2023-03-04T03:57:38.850Z,99984.06
2023-03-04T03:58:27.248Z,99977.69
2023-03-04T03:59:14.325Z,99976.56
2023-03-04T04:00:01.315Z,99983.63
2023-03-04T04:00:48.324Z,99980.81
2023-03-04T04:01:35.325Z,99975.81
2023-03-04T04:02:22.670Z,99985.44
2023-03-04T04:03:10.866Z,99984.88
2023-03-04T04:03:57.902Z,99982.66
2023-03-04T04:04:44.986Z,99977.44
2023-03-04T04:05:32.182Z,99979.88
2023-03-04T04:06:19.421Z,99979.53
2023-03-04T04:07:06.385Z,99986.31
2023-03-04T04:07:54.218Z,99983.84
2023-03-04T04:08:41.311Z,99976.91
2023-03-04T04:09:28.366Z,99978.44
2023-03-04T04:10:15.474Z,99979.13
2023-03-04T04:11:02.510Z,99976.41
2023-03-04T04:11:49.590Z,99971.28
2023-03-04T04:12:36.548Z,99976.97
2023-03-04T04:13:23.491Z,99978.84
2023-03-04T04:14:13.741Z,99976.22
2023-03-04T04:15:00.913Z,99969.41
2023-03-04T04:15:47.881Z,99974.91
2023-03-04T04:16:35.002Z,99976.25
2023-03-04T04:17:22.142Z,99971.97
2023-03-04T04:18:09.779Z,99967.09
2023-03-04T04:18:56.773Z,99976.13
2023-03-04T04:19:43.862Z,99977.16
2023-03-04T04:20:30.851Z,99970.37
2023-03-04T04:21:17.918Z,99973.66
2023-03-04T04:22:04.856Z,99971.63
2023-03-04T04:22:51.939Z,99968.97
2023-03-04T04:23:38.950Z,99966.97
2023-03-04T04:24:26.152Z,99968.38
2023-03-04T04:25:13.328Z,99966.50
2023-03-04T04:26:00.334Z,99973.94
2023-03-04T04:26:47.293Z,99970.72
2023-03-04T04:27:34.300Z,99968.09
2023-03-04T04:28:21.286Z,99973.44
2023-03-04T04:29:09.310Z,99966.47
2023-03-04T04:29:56.387Z,99979.06
2023-03-04T04:30:43.497Z,99971.66
2023-03-04T04:31:30.495Z,99966.84
2023-03-04T04:32:17.702Z,99971.78
2023-03-04T04:33:05.145Z,99970.94
2023-03-04T04:33:52.192Z,99969.25
2023-03-04T04:34:39.684Z,99966.81
2023-03-04T04:35:26.766Z,99969.84
2023-03-04T04:36:15.317Z,99972.59
2023-03-04T04:37:02.289Z,99967.59
2023-03-04T04:37:49.296Z,99971.63
2023-03-04T04:38:36.406Z,99969.28
2023-03-04T04:39:23.527Z,99968.16
2023-03-04T04:40:11.208Z,99965.47
2023-03-04T04:40:59.362Z,99973.66
2023-03-04T04:41:46.800Z,99971.34
2023-03-04T04:42:33.870Z,99965.19
2023-03-04T04:43:20.881Z,99969.19
2023-03-04T04:44:08.369Z,99976.75
2023-03-04T04:44:55.607Z,99966.84
2023-03-04T04:45:42.673Z,99969.63
2023-03-04T04:46:30.329Z,99972.63
2023-03-04T04:47:17.304Z,99969.81
2023-03-04T04:48:04.529Z,99973.16
2023-03-04T04:48:51.548Z,99964.06
2023-03-04T04:49:38.479Z,99977.59
2023-03-04T04:50:25.734Z,99966.38
2023-03-04T04:51:13.032Z,99963.44
2023-03-04T04:52:00.061Z,99969.72
2023-03-04T04:52:47.018Z,99965.34
2023-03-04T04:53:34.174Z,99973.00
2023-03-04T04:54:21.136Z,99970.87
2023-03-04T04:55:08.541Z,99962.56
2023-03-04T04:55:55.521Z,99963.78
2023-03-04T04:56:42.755Z,99967.88
2023-03-04T04:57:29.763Z,99959.22
2023-03-04T04:58:16.796Z,99968.94
2023-03-04T04:59:05.131Z,99967.84
2023-03-04T04:59:52.124Z,99972.59
2023-03-04T05:00:39.121Z,99961.00
2023-03-04T05:01:26.402Z,99968.88
2023-03-04T05:02:13.362Z,99962.41
2023-03-04T05:03:00.353Z,99961.00
2023-03-04T05:03:47.498Z,99964.41
2023-03-04T05:04:34.560Z,99962.44
2023-03-04T05:05:21.622Z,99966.69
2023-03-04T05:06:10.878Z,99961.22
2023-03-04T05:06:57.929Z,99957.69
2023-03-04T05:07:44.932Z,99962.81
2023-03-04T05:08:32.093Z,99962.34
2023-03-04T05:09:19.749Z,99960.66
2023-03-04T05:10:07.362Z,99955.47
2023-03-04T05:10:54.648Z,99950.75
2023-03-04T05:11:41.658Z,99951.44
2023-03-04T05:12:28.669Z,99952.47
2023-03-04T05:13:15.738Z,99952.78
2023-03-04T05:14:02.692Z,99950.47
2023-03-04T05:14:49.792Z,99950.25
2023-03-04T05:15:38.420Z,99954.50
2023-03-04T05:16:25.400Z,99953.47
2023-03-04T05:17:12.569Z,99952.88
2023-03-04T05:17:59.660Z,99956.44
2023-03-04T05:18:46.830Z,99962.53
2023-03-04T05:19:33.827Z,99958.28
2023-03-04T05:20:20.943Z,99959.94
2023-03-04T05:21:07.999Z,99965.44
2023-03-04T05:21:55.063Z,99969.69
2023-03-04T05:22:42.054Z,99963.84
2023-03-04T05:23:30.281Z,99967.72
2023-03-04T05:24:17.322Z,99960.38
2023-03-04T05:25:04.440Z,99965.81
2023-03-04T05:25:51.606Z,99963.09
2023-03-04T05:26:38.629Z,99966.97
2023-03-04T05:27:25.823Z,99966.78
2023-03-04T05:28:13.446Z,99962.91
2023-03-04T05:29:00.428Z,99964.22
2023-03-04T05:29:47.454Z,99964.91
2023-03-04T05:30:34.437Z,99967.81
2023-03-04T05:31:21.620Z,99964.69
2023-03-04T05:32:08.710Z,99960.53
2023-03-04T05:32:55.722Z,99959.91
2023-03-04T05:33:42.661Z,99958.09
2023-03-04T05:34:29.727Z,99966.59
2023-03-04T05:35:16.814Z,99954.13
2023-03-04T05:36:07.455Z,99956.09
2023-03-04T05:36:54.424Z,99953.53
2023-03-04T05:37:41.439Z,99957.28
2023-03-04T05:38:28.417Z,99956.72
2023-03-04T05:39:15.447Z,99959.69
2023-03-04T05:40:02.546Z,99949.44
2023-03-04T05:40:50.754Z,99956.22
2023-03-04T05:41:37.849Z,99956.72
2023-03-04T05:42:24.890Z,99950.88
2023-03-04T05:43:12.303Z,99956.72
2023-03-04T05:43:59.500Z,99956.91
2023-03-04T05:44:46.479Z,99949.59
2023-03-04T05:45:34.121Z,99953.44
2023-03-04T05:46:26.016Z,99957.78
2023-03-04T05:47:13.210Z,99960.41
2023-03-04T05:48:00.430Z,99959.03
2023-03-04T05:48:47.373Z,99951.66
2023-03-04T05:49:34.336Z,99953.06
2023-03-04T05:50:22.274Z,99960.09
2023-03-04T05:51:09.573Z,99962.03
2023-03-04T05:51:56.613Z,99955.97
2023-03-04T05:52:44.388Z,99954.22
2023-03-04T05:53:31.629Z,99956.19
2023-03-04T05:54:18.713Z,99955.75
2023-03-04T05:55:06.172Z,99949.88
2023-03-04T05:55:53.427Z,99963.28
2023-03-04T05:56:40.456Z,99955.53
2023-03-04T05:57:27.368Z,99953.47
2023-03-04T05:58:15.054Z,99964.38
2023-03-04T05:59:02.136Z,99966.38
2023-03-04T05:59:49.109Z,99958.94
2023-03-04T06:00:36.220Z,99967.22
2023-03-04T06:01:23.172Z,99959.69
2023-03-04T06:02:10.244Z,99964.50
2023-03-04T06:02:57.314Z,99965.03
2023-03-04T06:03:44.440Z,99960.28
2023-03-04T06:04:31.531Z,99967.03
2023-03-04T06:05:18.744Z,99960.16
2023-03-04T06:06:06.730Z,99963.28
2023-03-04T06:06:53.749Z,99965.75
2023-03-04T06:07:43.388Z,99962.91
2023-03-04T06:08:30.345Z,99971.03
2023-03-04T06:09:17.468Z,99965.38
2023-03-04T06:10:05.312Z,99966.00
2023-03-04T06:10:54.449Z,99965.25
2023-03-04T06:11:42.019Z,99972.50
2023-03-04T06:12:29.188Z,99964.84
2023-03-04T06:13:16.173Z,99975.12
2023-03-04T06:14:03.170Z,99972.88
2023-03-04T06:14:50.327Z,99977.25
2023-03-04T06:15:37.709Z,99974.50
2023-03-04T06:16:24.956Z,99968.63
2023-03-04T06:17:12.432Z,99978.31
2023-03-04T06:17:59.506Z,99979.53
2023-03-04T06:18:46.510Z,99973.22
2023-03-04T06:19:33.544Z,99975.28
2023-03-04T06:20:20.647Z,99974.91
2023-03-04T06:21:07.740Z,99976.41
2023-03-04T06:21:54.678Z,99976.78
2023-03-04T06:22:41.870Z,99986.97
2023-03-04T06:23:30.249Z,99978.06
2023-03-04T06:24:17.339Z,99973.03
2023-03-04T06:25:04.684Z,99990.53
2023-03-04T06:25:54.087Z,99982.19
2023-03-04T06:26:41.140Z,99992.38
2023-03-04T06:27:30.860Z,99989.84
2023-03-04T06:28:18.003Z,99986.69
2023-03-04T06:29:06.549Z,99987.34
2023-03-04T06:29:54.143Z,99986.31
2023-03-04T06:30:41.185Z,99980.78
2023-03-04T06:31:28.170Z,99983.22
2023-03-04T06:32:15.283Z,99983.59
2023-03-04T06:33:03.859Z,99987.34
2023-03-04T06:33:51.220Z,99985.47
2023-03-04T06:34:38.228Z,99988.25
2023-03-04T06:35:25.327Z,99987.56
2023-03-04T06:36:12.462Z,99983.84
2023-03-04T06:36:59.759Z,99987.31
2023-03-04T06:37:46.860Z,99987.94
2023-03-04T06:38:33.974Z,99990.62
2023-03-04T06:39:21.008Z,99990.16
2023-03-04T06:40:08.851Z,99987.50
2023-03-04T06:40:57.465Z,99983.50
2023-03-04T06:41:44.808Z,99989.44
2023-03-04T06:42:31.954Z,99984.47
2023-03-04T06:43:19.369Z,99989.72
2023-03-04T06:44:06.533Z,99981.91
2023-03-04T06:44:53.529Z,99983.84
2023-03-04T06:45:40.535Z,99981.19
2023-03-04T06:46:30.316Z,99985.13
2023-03-04T06:47:19.108Z,99981.72
2023-03-04T06:48:06.413Z,99983.34
2023-03-04T06:48:53.584Z,99986.75
2023-03-04T06:49:40.571Z,99980.75
2023-03-04T06:50:27.606Z,99987.28
2023-03-04T06:51:14.647Z,99990.69
2023-03-04T06:52:01.778Z,99991.94
2023-03-04T06:52:49.628Z,99988.59
2023-03-04T06:53:37.423Z,99982.84
2023-03-04T06:54:24.492Z,99989.12
2023-03-04T06:55:13.308Z,99983.50
2023-03-04T06:56:00.324Z,99984.34
2023-03-04T06:56:47.313Z,99982.44
2023-03-04T06:57:34.335Z,99987.41
2023-03-04T06:58:21.300Z,99981.59
2023-03-04T06:59:08.263Z,99980.66
2023-03-04T06:59:55.386Z,99977.56
2023-03-04T07:00:42.487Z,99979.59
2023-03-04T07:01:30.169Z,99983.28
2023-03-04T07:02:17.137Z,99973.09
2023-03-04T07:03:04.193Z,99979.44
2023-03-04T07:03:52.509Z,99974.47
2023-03-04T07:04:40.265Z,99977.53
2023-03-04T07:05:27.313Z,99975.94
2023-03-04T07:06:16.153Z,99978.22
2023-03-04T07:07:03.251Z,99972.78
2023-03-04T07:07:50.828Z,99969.28
2023-03-04T07:08:38.141Z,99966.69
2023-03-04T07:09:25.127Z,99964.78
2023-03-04T07:10:12.582Z,99963.59
2023-03-04T07:10:59.540Z,99966.53
2023-03-04T07:11:46.566Z,99967.91
2023-03-04T07:12:33.606Z,99968.69
2023-03-04T07:13:20.643Z,99972.06
2023-03-04T07:14:07.680Z,99968.72
2023-03-04T07:14:54.627Z,99967.28
2023-03-04T07:15:41.766Z,99963.69
2023-03-04T07:16:28.808Z,99960.69
2023-03-04T07:17:15.840Z,99958.19
2023-03-04T07:18:02.780Z,99960.97
2023-03-04T07:18:50.240Z,99959.75
2023-03-04T07:19:37.708Z,99960.50
2023-03-04T07:20:24.827Z,99963.94
2023-03-04T07:21:13.172Z,99961.03
2023-03-04T07:22:00.190Z,99953.31
2023-03-04T07:22:47.182Z,99961.78
2023-03-04T07:23:35.013Z,99964.53
2023-03-04T07:24:22.110Z,99957.53
2023-03-04T07:25:09.690Z,99958.50
2023-03-04T07:25:58.731Z,99955.94
2023-03-04T07:26:46.749Z,99959.91
2023-03-04T07:27:34.050Z,99962.94
2023-03-04T07:28:21.330Z,99950.22
2023-03-04T07:29:08.325Z,99951.78
2023-03-04T07:29:55.300Z,99953.63
2023-03-04T07:30:42.230Z,99961.09
2023-03-04T07:31:32.114Z,99962.66
2023-03-04T07:32:19.294Z,99954.19
2023-03-04T07:33:06.363Z,99951.59
2023-03-04T07:33:53.516Z,99955.47
2023-03-04T07:34:40.456Z,99954.09
2023-03-04T07:35:27.509Z,99959.19
2023-03-04T07:36:18.911Z,99957.44
2023-03-04T07:37:06.259Z,99961.50
2023-03-04T07:37:53.446Z,99959.34
2023-03-04T07:38:43.020Z,99964.88
2023-03-04T07:39:30.034Z,99970.19
2023-03-04T07:40:17.187Z,99964.91
2023-03-04T07:41:04.406Z,99965.41
2023-03-04T07:41:51.460Z,99966.12
2023-03-04T07:42:39.739Z,99957.84
2023-03-04T07:43:26.980Z,99961.53
2023-03-04T07:44:14.007Z,99967.47
2023-03-04T07:45:02.272Z,99963.69
2023-03-04T07:45:49.560Z,99961.63
2023-03-04T07:46:36.699Z,99958.88
2023-03-04T07:47:23.707Z,99961.16
2023-03-04T07:48:14.251Z,99964.22
2023-03-04T07:49:01.495Z,99964.09
2023-03-04T07:49:48.575Z,99957.91
2023-03-04T07:50:35.622Z,99966.69
2023-03-04T07:51:24.493Z,99959.47
2023-03-04T07:52:11.540Z,99959.25
2023-03-04T07:52:58.739Z,99958.78
2023-03-04T07:53:48.578Z,99958.53
2023-03-04T07:54:35.657Z,99964.59
2023-03-04T07:55:22.673Z,99965.44
2023-03-04T07:56:13.344Z,99963.78
2023-03-04T07:57:00.152Z,99967.34
2023-03-04T07:57:47.991Z,99967.88
2023-03-04T07:58:35.046Z,99963.44
2023-03-04T07:59:22.203Z,99964.69
2023-03-04T08:00:11.073Z,99958.69
2023-03-04T08:00:58.781Z,99961.91
2023-03-04T08:01:45.834Z,99960.22
2023-03-04T08:02:32.922Z,99963.03
2023-03-04T08:03:20.015Z,99965.75
2023-03-04T08:04:10.329Z,99963.66
2023-03-04T08:04:57.425Z,99957.50
2023-03-04T08:05:44.378Z,99959.50
2023-03-04T08:06:31.810Z,99963.72
2023-03-04T08:07:18.901Z,99963.00
2023-03-04T08:08:05.894Z,99962.59
2023-03-04T08:09:00.465Z,99959.94
2023-03-04T08:09:47.535Z,99962.75
2023-03-04T08:10:34.737Z,99958.25
2023-03-04T08:11:22.327Z,99957.41
2023-03-04T08:12:09.726Z,99955.44
2023-03-04T08:12:56.837Z,99950.09
2023-03-04T08:13:44.255Z,99961.63
2023-03-04T08:14:31.368Z,99948.13
2023-03-04T08:15:18.518Z,99958.41
2023-03-04T08:16:06.261Z,99950.38
2023-03-04T08:16:53.412Z,99949.84
2023-03-04T08:17:40.415Z,99953.50
2023-03-04T08:18:27.496Z,99957.97
2023-03-04T08:19:14.511Z,99948.84
2023-03-04T08:20:01.503Z,99946.03
2023-03-04T08:20:48.580Z,99946.75
2023-03-04T08:21:35.984Z,99956.00
2023-03-04T08:22:23.521Z,99943.09
2023-03-04T08:23:11.249Z,99947.31
2023-03-04T08:24:00.196Z,99948.72
2023-03-04T08:24:47.340Z,99944.34
2023-03-04T08:25:34.425Z,99943.47
2023-03-04T08:26:28.969Z,99940.09
2023-03-04T08:27:16.024Z,99938.00
2023-03-04T08:28:03.026Z,99937.12
2023-03-04T08:28:50.816Z,99942.75
2023-03-04T08:29:37.803Z,99938.97
2023-03-04T08:30:25.249Z,99939.22
2023-03-04T08:31:16.715Z,99940.91
2023-03-04T08:32:04.295Z,99939.63
2023-03-04T08:32:51.431Z,99942.44
2023-03-04T08:33:38.569Z,99943.56
2023-03-04T08:34:27.258Z,99944.97
2023-03-04T08:35:14.441Z,99940.03
2023-03-04T08:36:01.561Z,99939.44
2023-03-04T08:36:48.788Z,99942.09
2023-03-04T08:37:35.842Z,99942.34
2023-03-04T08:38:22.892Z,99937.25
2023-03-04T08:39:11.813Z,99936.56
2023-03-04T08:39:58.914Z,99933.63
2023-03-04T08:40:45.887Z,99936.38
2023-03-04T08:41:33.065Z,99939.47
2023-03-04T08:42:20.360Z,99939.56
2023-03-04T08:43:07.310Z,99934.91
2023-03-04T08:43:54.395Z,99938.81
2023-03-04T08:44:41.490Z,99928.34
2023-03-04T08:45:28.651Z,99936.00
2023-03-04T08:46:15.713Z,99938.06
2023-03-04T08:47:02.700Z,99937.75
2023-03-04T08:47:51.522Z,99935.62
2023-03-04T08:48:39.126Z,99927.75
2023-03-04T08:49:26.091Z,99924.47
2023-03-04T08:50:13.163Z,99931.91
2023-03-04T08:51:00.412Z,99937.34
2023-03-04T08:51:47.524Z,99927.19
2023-03-04T08:52:34.714Z,99926.19
2023-03-04T08:53:21.975Z,99932.59
2023-03-04T08:54:09.297Z,99925.25
2023-03-04T08:54:56.854Z,99926.50
2023-03-04T08:55:44.246Z,99923.03
2023-03-04T08:56:31.363Z,99918.59
2023-03-04T08:57:18.320Z,99916.16
2023-03-04T08:58:06.093Z,99923.91
2023-03-04T08:58:53.374Z,99915.53
2023-03-04T08:59:40.416Z,99919.38
2023-03-04T09:00:27.477Z,99916.09
2023-03-04T09:01:15.340Z,99919.13
2023-03-04T09:02:02.461Z,99922.38
2023-03-04T09:02:50.011Z,99923.19
2023-03-04T09:03:37.663Z,99925.87
2023-03-04T09:04:24.915Z,99924.44
2023-03-04T09:05:12.191Z,99920.59
2023-03-04T09:05:59.559Z,99928.34
2023-03-04T09:06:46.544Z,99925.87
2023-03-04T09:07:33.507Z,99923.41
2023-03-04T09:08:20.690Z,99930.16
2023-03-04T09:09:07.865Z,99930.38
2023-03-04T09:09:54.977Z,99922.19
2023-03-04T09:10:42.326Z,99922.69
2023-03-04T09:11:29.441Z,99920.06
2023-03-04T09:12:16.489Z,99923.97
2023-03-04T09:13:03.627Z,99921.12
2023-03-04T09:13:52.146Z,99914.41
2023-03-04T09:14:39.261Z,99922.13
2023-03-04T09:15:26.257Z,99909.37